Time;durP1;ratioP1;P1;durP2;ratioP2;P2;SDS_P1;SDS_P2;PMS_P1;PMS_P2;Temp;Humidity;BMP_temperature;BMP_pressure;BME280_temperature;BME280_humidity;BME280_pressure;Samples;Min_cycle;Max_cycle;Signal;HPM_P1;HPM_P2
2023/07/15 00:01:30;;;;;;;2.35;1.60;;;;;;;;;;5082965;28;20108;-71
2023/07/15 00:03:57;;;;;;;6.35;1.90;;;;;;;;;;5082660;28;20049;-72
2023/07/15 00:06:25;;;;;;;2.55;1.60;;;;;;;;;;5083227;28;20072;-72
2023/07/15 00:08:52;;;;;;;3.25;1.80;;;;;;;;;;5082407;28;20051;-72
2023/07/15 00:11:39;;;;;;;3.85;1.85;;;;;;;;;;5082743;28;20044;-71
2023/07/15 00:14:16;;;;;;;3.13;1.50;;;;;;;;;;5082637;28;20049;-72
2023/07/15 00:16:43;;;;;;;4.72;1.90;;;;;;;;;;5082726;28;20138;-73
2023/07/15 00:19:10;;;;;;;2.97;1.45;;;;;;;;;;5082811;28;20048;-76
2023/07/15 00:21:37;;;;;;;4.82;1.85;;;;;;;;;;5082787;28;20087;-76
2023/07/15 00:24:03;;;;;;;4.40;1.55;;;;;;;;;;5082541;28;20045;-72
2023/07/15 00:26:34;;;;;;;2.50;1.52;;;;;;;;;;5082426;28;20090;-71
2023/07/15 00:29:03;;;;;;;3.55;1.58;;;;;;;;;;5082246;28;20079;-72
2023/07/15 00:31:32;;;;;;;3.28;1.70;;;;;;;;;;5082249;28;20059;-72
2023/07/15 00:33:58;;;;;;;2.92;1.52;;;;;;;;;;5082751;28;20052;-72
2023/07/15 00:36:26;;;;;;;2.65;1.60;;;;;;;;;;5082204;28;20052;-73
2023/07/15 00:38:53;;;;;;;3.60;1.90;;;;;;;;;;5081672;28;20184;-73
2023/07/15 00:41:23;;;;;;;4.78;1.90;;;;;;;;;;5081492;28;20044;-71
2023/07/15 00:43:54;;;;;;;3.85;1.83;;;;;;;;;;5082297;28;20162;-72
2023/07/15 00:46:26;;;;;;;4.07;1.77;;;;;;;;;;5082438;28;20090;-71
2023/07/15 00:49:00;;;;;;;5.10;1.90;;;;;;;;;;5082107;28;20412;-72
2023/07/15 00:51:29;;;;;;;5.30;1.80;;;;;;;;;;5082012;28;20044;-72
2023/07/15 00:53:56;;;;;;;4.57;1.80;;;;;;;;;;5081657;28;20374;-71
2023/07/15 00:56:24;;;;;;;3.35;1.77;;;;;;;;;;5082038;28;20048;-74
2023/07/15 00:58:50;;;;;;;3.40;1.50;;;;;;;;;;5082206;28;20075;-72
2023/07/15 01:01:18;;;;;;;2.53;1.48;;;;;;;;;;5081801;28;20056;-71
2023/07/15 01:03:45;;;;;;;1.92;1.23;;;;;;;;;;5081621;28;20056;-72
2023/07/15 01:06:12;;;;;;;3.30;1.50;;;;;;;;;;5080570;28;20053;-71
2023/07/15 01:08:40;;;;;;;4.45;1.50;;;;;;;;;;5081662;28;20045;-71
2023/07/15 01:11:07;;;;;;;2.17;1.23;;;;;;;;;;5080931;28;20056;-71
2023/07/15 01:13:34;;;;;;;1.42;1.05;;;;;;;;;;5081925;28;20048;-71
2023/07/15 01:16:01;;;;;;;1.73;1.15;;;;;;;;;;5079106;28;20237;-71
2023/07/15 01:18:31;;;;;;;2.17;1.10;;;;;;;;;;5069028;28;20052;-72
2023/07/15 01:20:59;;;;;;;1.58;1.08;;;;;;;;;;5061603;28;20091;-72
2023/07/15 01:23:27;;;;;;;3.50;1.30;;;;;;;;;;5060012;28;20068;-71
2023/07/15 01:25:55;;;;;;;1.20;1.00;;;;;;;;;;5061459;28;20045;-71
2023/07/15 01:28:22;;;;;;;2.03;1.25;;;;;;;;;;5061485;28;20045;-72
2023/07/15 01:30:48;;;;;;;1.88;1.10;;;;;;;;;;5061474;28;20075;-71
2023/07/15 01:33:15;;;;;;;1.40;1.02;;;;;;;;;;5061465;28;20084;-72
2023/07/15 01:35:47;;;;;;;5.53;1.13;;;;;;;;;;5061476;28;20094;-73
2023/07/15 01:38:15;;;;;;;2.08;1.00;;;;;;;;;;5060963;28;20052;-72
2023/07/15 01:40:42;;;;;;;1.98;1.20;;;;;;;;;;5060937;28;20280;-71
2023/07/15 01:43:09;;;;;;;1.77;1.17;;;;;;;;;;5060909;28;20082;-71
2023/07/15 01:45:39;;;;;;;2.15;1.30;;;;;;;;;;5061180;28;20044;-71
2023/07/15 01:48:07;;;;;;;1.67;0.95;;;;;;;;;;5061078;28;20048;-71
2023/07/15 01:50:35;;;;;;;1.67;1.10;;;;;;;;;;5060618;28;20272;-70
2023/07/15 01:53:02;;;;;;;1.35;0.75;;;;;;;;;;5060235;28;20297;-71
2023/07/15 01:55:29;;;;;;;1.88;1.10;;;;;;;;;;5061278;28;20064;-71
2023/07/15 01:57:56;;;;;;;4.50;1.30;;;;;;;;;;5060961;28;20049;-70
2023/07/15 02:00:23;;;;;;;1.77;1.10;;;;;;;;;;5060833;28;20052;-79
2023/07/15 02:02:49;;;;;;;2.95;1.00;;;;;;;;;;5060840;28;20051;-72
2023/07/15 02:05:16;;;;;;;1.48;0.95;;;;;;;;;;5060948;28;20048;-75
2023/07/15 02:07:43;;;;;;;3.15;1.15;;;;;;;;;;5060639;28;20055;-72
2023/07/15 02:10:10;;;;;;;1.85;1.02;;;;;;;;;;5060860;28;20466;-72
2023/07/15 02:12:36;;;;;;;3.05;1.00;;;;;;;;;;5060717;28;20220;-73
2023/07/15 02:15:04;;;;;;;2.13;1.08;;;;;;;;;;5060418;28;20387;-76
2023/07/15 02:17:31;;;;;;;1.92;1.00;;;;;;;;;;5060216;28;20048;-71
2023/07/15 02:19:59;;;;;;;1.27;1.00;;;;;;;;;;5060667;28;20090;-70
2023/07/15 02:22:26;;;;;;;2.25;1.10;;;;;;;;;;5060343;28;20220;-78
2023/07/15 02:24:53;;;;;;;3.20;1.02;;;;;;;;;;5060383;28;20076;-72
2023/07/15 02:27:20;;;;;;;2.05;1.10;;;;;;;;;;5060647;28;20059;-71
2023/07/15 02:29:46;;;;;;;1.73;0.95;;;;;;;;;;5060277;28;20077;-75
2023/07/15 02:32:39;;;;;;;3.97;1.17;;;;;;;;;;5060396;28;20083;-75
2023/07/15 02:35:10;;;;;;;1.48;0.90;;;;;;;;;;5060179;28;20045;-74
2023/07/15 02:37:38;;;;;;;1.27;0.90;;;;;;;;;;5059981;28;20060;-71
2023/07/15 02:40:06;;;;;;;2.35;1.10;;;;;;;;;;5060294;28;20053;-78
2023/07/15 02:42:33;;;;;;;1.33;0.82;;;;;;;;;;5060154;28;20432;-71
2023/07/15 02:45:03;;;;;;;2.78;1.00;;;;;;;;;;5060080;28;20052;-71
2023/07/15 02:47:31;;;;;;;1.52;1.02;;;;;;;;;;5060639;28;20056;-72
2023/07/15 02:50:03;;;;;;;1.83;1.08;;;;;;;;;;5059942;28;20329;-74
2023/07/15 02:52:32;;;;;;;1.75;1.00;;;;;;;;;;5059567;28;20051;-71
2023/07/15 02:55:04;;;;;;;1.85;1.00;;;;;;;;;;5060188;28;20045;-71
2023/07/15 02:57:32;;;;;;;1.55;1.00;;;;;;;;;;5060338;28;20069;-79
2023/07/15 02:59:59;;;;;;;1.23;0.85;;;;;;;;;;5060094;28;20450;-79
2023/07/15 03:02:27;;;;;;;2.17;0.95;;;;;;;;;;5060351;28;20059;-80
2023/07/15 03:04:54;;;;;;;1.50;0.90;;;;;;;;;;5073291;28;20119;-74
2023/07/15 03:07:20;;;;;;;1.05;0.80;;;;;;;;;;5083682;28;20431;-72
2023/07/15 03:09:47;;;;;;;1.27;0.93;;;;;;;;;;5084055;28;20115;-74
2023/07/15 03:12:14;;;;;;;1.35;0.90;;;;;;;;;;5084034;28;20375;-71
2023/07/15 03:14:43;;;;;;;1.42;0.90;;;;;;;;;;5083860;28;20045;-70
2023/07/15 03:17:10;;;;;;;1.75;0.82;;;;;;;;;;5084031;28;20040;-70
2023/07/15 03:19:37;;;;;;;2.15;0.88;;;;;;;;;;5083726;28;20058;-71
2023/07/15 03:22:05;;;;;;;1.30;0.88;;;;;;;;;;5083542;28;20045;-71
2023/07/15 03:24:34;;;;;;;2.30;1.00;;;;;;;;;;5083519;28;20044;-70
2023/07/15 03:27:01;;;;;;;1.42;0.90;;;;;;;;;;5083671;28;20052;-71
2023/07/15 03:29:28;;;;;;;1.88;1.00;;;;;;;;;;5083663;28;20054;-71
2023/07/15 03:31:54;;;;;;;2.47;0.70;;;;;;;;;;5083645;28;20267;-71
2023/07/15 03:34:21;;;;;;;1.80;0.90;;;;;;;;;;5083153;28;20045;-71
2023/07/15 03:36:52;;;;;;;2.55;0.77;;;;;;;;;;5083902;28;20044;-71
2023/07/15 03:39:20;;;;;;;1.00;0.73;;;;;;;;;;5083016;28;20336;-71
2023/07/15 03:41:47;;;;;;;1.52;0.80;;;;;;;;;;5083703;28;20071;-70
2023/07/15 03:44:14;;;;;;;2.88;0.90;;;;;;;;;;5083632;28;20044;-72
2023/07/15 03:46:41;;;;;;;1.52;0.90;;;;;;;;;;5082124;28;20044;-71
2023/07/15 03:49:08;;;;;;;1.20;0.88;;;;;;;;;;5083493;28;20062;-72
2023/07/15 03:51:35;;;;;;;3.20;1.10;;;;;;;;;;5083343;28;20052;-71
2023/07/15 03:54:05;;;;;;;1.30;0.77;;;;;;;;;;5082882;28;20352;-71
2023/07/15 03:56:33;;;;;;;1.85;1.00;;;;;;;;;;5083293;28;20045;-71
2023/07/15 03:59:00;;;;;;;1.60;0.80;;;;;;;;;;5082965;28;20411;-72
2023/07/15 04:01:26;;;;;;;1.10;0.70;;;;;;;;;;5083220;28;20051;-71
2023/07/15 04:03:53;;;;;;;1.50;0.68;;;;;;;;;;5082696;28;20328;-70
2023/07/15 04:06:20;;;;;;;1.77;1.10;;;;;;;;;;5082789;28;20044;-70
2023/07/15 04:08:46;;;;;;;1.35;0.98;;;;;;;;;;5082736;28;20083;-71
2023/07/15 04:11:13;;;;;;;1.58;0.98;;;;;;;;;;5083092;28;20059;-71
2023/07/15 04:13:40;;;;;;;1.35;0.80;;;;;;;;;;5082442;28;20051;-73
2023/07/15 04:16:06;;;;;;;3.22;0.98;;;;;;;;;;5082922;28;20044;-71
2023/07/15 04:18:33;;;;;;;2.67;0.85;;;;;;;;;;5083036;28;20047;-72
2023/07/15 04:21:00;;;;;;;2.45;0.80;;;;;;;;;;5082646;28;20116;-76
2023/07/15 04:23:27;;;;;;;0.80;0.70;;;;;;;;;;5082271;28;20151;-71
2023/07/15 04:25:53;;;;;;;1.15;0.75;;;;;;;;;;5082618;28;20044;-74
2023/07/15 04:28:20;;;;;;;1.35;0.80;;;;;;;;;;5082615;28;20044;-70
2023/07/15 04:30:47;;;;;;;1.70;0.80;;;;;;;;;;5082638;28;20060;-71
2023/07/15 04:33:14;;;;;;;1.70;0.82;;;;;;;;;;5082483;28;20079;-70
2023/07/15 04:35:41;;;;;;;1.77;0.90;;;;;;;;;;5082302;28;20236;-70
2023/07/15 04:38:09;;;;;;;1.20;0.88;;;;;;;;;;5081884;28;20047;-70
2023/07/15 04:40:36;;;;;;;1.30;0.80;;;;;;;;;;5082328;28;20174;-70
2023/07/15 04:43:03;;;;;;;2.75;1.00;;;;;;;;;;5082352;28;20045;-71
2023/07/15 04:45:31;;;;;;;1.60;0.80;;;;;;;;;;5082104;28;20051;-70
2023/07/15 04:47:58;;;;;;;1.30;0.82;;;;;;;;;;5082405;28;20050;-70
2023/07/15 04:50:25;;;;;;;1.98;0.93;;;;;;;;;;5082371;28;20051;-70
2023/07/15 04:52:52;;;;;;;1.60;0.70;;;;;;;;;;5081711;28;20044;-72
2023/07/15 04:55:19;;;;;;;1.50;0.60;;;;;;;;;;5081776;28;20416;-70
2023/07/15 04:57:45;;;;;;;1.45;0.90;;;;;;;;;;5081904;28;20048;-70
2023/07/15 05:00:12;;;;;;;1.73;1.00;;;;;;;;;;5082175;28;20051;-71
2023/07/15 05:02:39;;;;;;;0.88;0.75;;;;;;;;;;5082243;28;20048;-71
2023/07/15 05:05:06;;;;;;;1.48;0.90;;;;;;;;;;5081733;28;20337;-70
2023/07/15 05:07:33;;;;;;;2.03;0.70;;;;;;;;;;5081458;28;20224;-71
2023/07/15 05:10:21;;;;;;;1.45;0.70;;;;;;;;;;5081647;28;20040;-70
2023/07/15 05:12:47;;;;;;;1.70;0.70;;;;;;;;;;5081756;28;20364;-70
2023/07/15 05:15:14;;;;;;;2.45;0.90;;;;;;;;;;5081698;28;20051;-70
2023/07/15 05:17:43;;;;;;;0.82;0.65;;;;;;;;;;5082010;28;20044;-70
2023/07/15 05:20:10;;;;;;;1.75;0.80;;;;;;;;;;5081665;28;20045;-71
2023/07/15 05:22:37;;;;;;;2.80;0.85;;;;;;;;;;5081108;28;20070;-70
2023/07/15 05:25:04;;;;;;;1.48;0.73;;;;;;;;;;5081008;28;20060;-71
2023/07/15 05:27:31;;;;;;;1.20;0.73;;;;;;;;;;5081351;28;20044;-70
2023/07/15 05:29:58;;;;;;;1.20;0.70;;;;;;;;;;5081287;28;20049;-70
2023/07/15 05:32:24;;;;;;;1.13;0.80;;;;;;;;;;5081566;28;20048;-70
2023/07/15 05:34:51;;;;;;;1.63;0.85;;;;;;;;;;5081097;28;20107;-70
2023/07/15 05:37:17;;;;;;;1.55;0.88;;;;;;;;;;5080969;28;20090;-69
2023/07/15 05:39:47;;;;;;;1.60;0.80;;;;;;;;;;5081286;28;20041;-70
2023/07/15 05:42:13;;;;;;;0.77;0.70;;;;;;;;;;5081397;28;20083;-70
2023/07/15 05:44:40;;;;;;;0.88;0.70;;;;;;;;;;5080964;28;20068;-70
2023/07/15 05:47:07;;;;;;;1.52;0.90;;;;;;;;;;5081104;28;20044;-70
2023/07/15 05:49:33;;;;;;;1.60;0.85;;;;;;;;;;5081044;28;20052;-70
2023/07/15 05:52:00;;;;;;;1.40;0.80;;;;;;;;;;5080914;28;20111;-70
2023/07/15 05:54:27;;;;;;;1.30;0.70;;;;;;;;;;5080833;28;20045;-70
2023/07/15 05:56:54;;;;;;;1.48;0.82;;;;;;;;;;5079904;28;20109;-71
2023/07/15 05:59:20;;;;;;;1.92;1.00;;;;;;;;;;5068887;28;20221;-71
2023/07/15 06:01:47;;;;;;;1.58;0.90;;;;;;;;;;5075061;28;20045;-71
2023/07/15 06:04:14;;;;;;;1.02;0.88;;;;;;;;;;5060245;28;20061;-72
2023/07/15 06:06:41;;;;;;;1.45;0.77;;;;;;;;;;5058492;28;20127;-70
2023/07/15 06:09:08;;;;;;;2.88;0.80;;;;;;;;;;5059176;28;20107;-69
2023/07/15 06:11:34;;;;;;;1.17;0.80;;;;;;;;;;5059863;28;20240;-74
2023/07/15 06:14:03;;;;;;;1.00;0.70;;;;;;;;;;5059893;28;20055;-76
2023/07/15 06:16:30;;;;;;;1.83;0.80;;;;;;;;;;5059283;28;20044;-70
2023/07/15 06:18:57;;;;;;;1.85;0.93;;;;;;;;;;5059910;28;20060;-81
2023/07/15 06:21:24;;;;;;;1.05;0.70;;;;;;;;;;5059858;28;20049;-72
2023/07/15 06:23:50;;;;;;;4.38;1.15;;;;;;;;;;5060236;28;20049;-69
2023/07/15 06:26:17;;;;;;;0.63;0.63;;;;;;;;;;5060363;28;20049;-72
2023/07/15 06:28:44;;;;;;;1.50;0.88;;;;;;;;;;5070314;28;20111;-70
2023/07/15 06:31:10;;;;;;;1.48;0.80;;;;;;;;;;5072010;28;20057;-70
2023/07/15 06:33:44;;;;;;;0.88;0.75;;;;;;;;;;5073263;28;20120;-72
2023/07/15 06:36:11;;;;;;;1.92;0.90;;;;;;;;;;5072676;28;20049;-70
2023/07/15 06:38:38;;;;;;;1.58;0.88;;;;;;;;;;5071852;28;20044;-75
2023/07/15 06:41:05;;;;;;;1.85;1.20;;;;;;;;;;5072276;28;20349;-71
2023/07/15 06:43:32;;;;;;;1.40;0.90;;;;;;;;;;5073474;28;20198;-72
2023/07/15 06:45:59;;;;;;;1.45;0.90;;;;;;;;;;5074641;28;20059;-71
2023/07/15 06:48:26;;;;;;;1.05;0.80;;;;;;;;;;5072148;28;20162;-71
2023/07/15 06:50:52;;;;;;;1.58;0.98;;;;;;;;;;5073498;28;20044;-72
2023/07/15 06:53:19;;;;;;;1.67;0.95;;;;;;;;;;5071404;28;20351;-71
2023/07/15 06:55:46;;;;;;;1.48;0.90;;;;;;;;;;5073175;28;20116;-71
2023/07/15 06:58:12;;;;;;;1.85;0.90;;;;;;;;;;5073739;28;20044;-76
2023/07/15 07:00:39;;;;;;;1.33;0.90;;;;;;;;;;5073736;28;20071;-73
2023/07/15 07:03:06;;;;;;;1.48;0.90;;;;;;;;;;5071823;28;20064;-72
2023/07/15 07:05:32;;;;;;;1.42;0.82;;;;;;;;;;5072926;28;20099;-72
2023/07/15 07:07:59;;;;;;;1.27;0.90;;;;;;;;;;5073025;28;20045;-71
2023/07/15 07:10:26;;;;;;;1.23;0.80;;;;;;;;;;5071821;28;20139;-72
2023/07/15 07:12:52;;;;;;;6.05;1.88;;;;;;;;;;5088780;28;20044;-73
2023/07/15 07:15:19;;;;;;;2.88;1.15;;;;;;;;;;5072852;28;20052;-72
2023/07/15 07:17:46;;;;;;;1.45;0.70;;;;;;;;;;5073013;28;20051;-72
2023/07/15 07:20:13;;;;;;;1.27;0.90;;;;;;;;;;5072330;28;20228;-77
2023/07/15 07:22:40;;;;;;;1.55;0.90;;;;;;;;;;5071438;28;20048;-72
2023/07/15 07:25:07;;;;;;;2.58;1.08;;;;;;;;;;5071663;28;20098;-71
2023/07/15 07:27:34;;;;;;;1.35;0.85;;;;;;;;;;5071176;28;20053;-76
2023/07/15 07:30:01;;;;;;;1.63;1.00;;;;;;;;;;5075076;28;20051;-71
2023/07/15 07:32:27;;;;;;;1.50;0.98;;;;;;;;;;5072147;28;20081;-71
2023/07/15 07:34:54;;;;;;;1.23;0.90;;;;;;;;;;5073119;28;20053;-71
2023/07/15 07:37:21;;;;;;;1.67;1.10;;;;;;;;;;5071060;28;20996;-75
2023/07/15 07:39:47;;;;;;;1.48;1.10;;;;;;;;;;5075214;28;20553;-71
2023/07/15 07:42:14;;;;;;;1.35;0.95;;;;;;;;;;5072967;28;20348;-72
2023/07/15 07:44:41;;;;;;;2.50;1.00;;;;;;;;;;5072440;28;20098;-71
2023/07/15 07:47:07;;;;;;;1.35;1.05;;;;;;;;;;5072261;28;20264;-72
2023/07/15 07:49:34;;;;;;;2.38;0.90;;;;;;;;;;5072942;28;20098;-71
2023/07/15 07:52:03;;;;;;;1.40;0.90;;;;;;;;;;5077078;28;20101;-72
2023/07/15 07:54:30;;;;;;;4.57;1.17;;;;;;;;;;5076540;28;20284;-71
2023/07/15 07:56:57;;;;;;;1.40;1.00;;;;;;;;;;5077760;28;20059;-71
2023/07/15 07:59:24;;;;;;;1.83;1.08;;;;;;;;;;5076553;28;20052;-72
2023/07/15 08:01:51;;;;;;;1.73;1.10;;;;;;;;;;5076606;28;20112;-71
2023/07/15 08:04:18;;;;;;;1.63;0.93;;;;;;;;;;5074772;28;20063;-70
2023/07/15 08:06:44;;;;;;;1.40;0.90;;;;;;;;;;5076625;28;20066;-71
2023/07/15 08:09:11;;;;;;;2.42;1.00;;;;;;;;;;5073731;28;20531;-72
2023/07/15 08:11:38;;;;;;;1.80;1.10;;;;;;;;;;5075425;28;20052;-72
2023/07/15 08:14:05;;;;;;;1.40;0.93;;;;;;;;;;5075201;28;20058;-70
2023/07/15 08:16:32;;;;;;;1.17;0.90;;;;;;;;;;5090011;28;20170;-72
2023/07/15 08:19:00;;;;;;;1.90;1.00;;;;;;;;;;5076960;28;20154;-71
2023/07/15 08:21:27;;;;;;;1.35;0.90;;;;;;;;;;5073457;28;20056;-72
2023/07/15 08:23:54;;;;;;;1.27;1.00;;;;;;;;;;5075648;28;20044;-71
2023/07/15 08:26:22;;;;;;;1.95;1.10;;;;;;;;;;5073165;28;20675;-71
2023/07/15 08:28:49;;;;;;;1.63;1.05;;;;;;;;;;5075626;28;20052;-70
2023/07/15 08:31:16;;;;;;;2.42;1.30;;;;;;;;;;5077113;28;20052;-75
2023/07/15 08:33:43;;;;;;;1.95;1.02;;;;;;;;;;5078566;28;20345;-72
2023/07/15 08:36:10;;;;;;;2.13;1.30;;;;;;;;;;5079142;28;20132;-71
2023/07/15 08:38:37;;;;;;;1.45;1.00;;;;;;;;;;5078373;28;20233;-70
2023/07/15 08:41:03;;;;;;;2.65;1.10;;;;;;;;;;5082231;28;20410;-72
2023/07/15 08:43:31;;;;;;;2.25;1.15;;;;;;;;;;5081164;28;20059;-71
2023/07/15 08:46:26;;;;;;;1.65;0.90;;;;;;;;;;5082485;28;20111;-71
2023/07/15 08:48:54;;;;;;;2.05;1.10;;;;;;;;;;5081593;28;20106;-71
2023/07/15 08:51:24;;;;;;;1.88;1.13;;;;;;;;;;5082312;28;20064;-70
2023/07/15 08:53:52;;;;;;;3.58;1.23;;;;;;;;;;5081769;28;20392;-71
2023/07/15 08:56:21;;;;;;;1.50;1.00;;;;;;;;;;5081581;28;20045;-71
2023/07/15 08:58:48;;;;;;;2.17;1.13;;;;;;;;;;5081105;28;20051;-72
2023/07/15 09:01:17;;;;;;;1.67;1.10;;;;;;;;;;5076835;28;20046;-78
2023/07/15 09:03:44;;;;;;;2.75;1.20;;;;;;;;;;5079023;28;20052;-73
2023/07/15 09:06:11;;;;;;;2.45;1.17;;;;;;;;;;5081376;28;20052;-85
2023/07/15 09:08:41;;;;;;;1.40;1.00;;;;;;;;;;5077414;28;20079;-71
2023/07/15 09:11:11;;;;;;;1.33;0.98;;;;;;;;;;5070624;28;20413;-71
2023/07/15 09:13:38;;;;;;;3.92;1.27;;;;;;;;;;5071691;28;20052;-72
2023/07/15 09:16:04;;;;;;;1.25;1.00;;;;;;;;;;5073294;28;20090;-72
2023/07/15 09:18:31;;;;;;;2.15;1.25;;;;;;;;;;5074340;28;20059;-74
2023/07/15 09:21:15;;;;;;;1.95;1.70;;;;;;;;;;5074031;28;20036;-73
2023/07/15 09:23:44;;;;;;;2.33;1.33;;;;;;;;;;5074517;28;20052;-71
2023/07/15 09:26:12;;;;;;;2.85;1.38;;;;;;;;;;5074929;28;20049;-72
2023/07/15 09:28:41;;;;;;;1.75;1.30;;;;;;;;;;5074752;28;20058;-70
2023/07/15 09:31:07;;;;;;;2.42;1.20;;;;;;;;;;5076786;28;20051;-71
2023/07/15 09:33:40;;;;;;;2.83;1.20;;;;;;;;;;5080264;28;20048;-71
2023/07/15 09:36:07;;;;;;;2.35;1.27;;;;;;;;;;5075425;28;20053;-70
2023/07/15 09:38:35;;;;;;;2.92;1.30;;;;;;;;;;5070444;28;20055;-70
2023/07/15 09:41:04;;;;;;;2.63;1.50;;;;;;;;;;5070393;28;20052;-70
2023/07/15 09:43:43;;;;;;;1.88;1.02;;;;;;;;;;5072242;28;20068;-71
2023/07/15 09:46:10;;;;;;;3.88;1.10;;;;;;;;;;5075826;28;20365;-71
2023/07/15 09:48:37;;;;;;;2.17;1.40;;;;;;;;;;5071010;28;20319;-69
2023/07/15 09:51:04;;;;;;;1.90;1.35;;;;;;;;;;5073364;28;20111;-71
2023/07/15 09:53:31;;;;;;;2.80;1.45;;;;;;;;;;5062542;28;20052;-70
2023/07/15 09:56:00;;;;;;;3.70;1.73;;;;;;;;;;5068950;28;20048;-71
2023/07/15 09:58:28;;;;;;;2.25;1.25;;;;;;;;;;5068888;28;20044;-78
2023/07/15 10:01:11;;;;;;;2.63;1.40;;;;;;;;;;5070684;28;20606;-71
2023/07/15 10:03:45;;;;;;;3.08;1.25;;;;;;;;;;5067867;28;20417;-69
2023/07/15 10:06:12;;;;;;;1.88;1.23;;;;;;;;;;5069040;28;20120;-69
2023/07/15 10:08:39;;;;;;;1.95;1.20;;;;;;;;;;5068012;28;20040;-73
2023/07/15 10:11:07;;;;;;;2.75;1.20;;;;;;;;;;5067793;28;20049;-70
2023/07/15 10:13:35;;;;;;;2.33;1.20;;;;;;;;;;5068600;28;20060;-69
2023/07/15 10:16:02;;;;;;;3.08;1.48;;;;;;;;;;5068824;28;20551;-69
2023/07/15 10:18:31;;;;;;;2.28;1.45;;;;;;;;;;5068703;28;20041;-70
2023/07/15 10:21:05;;;;;;;1.90;1.30;;;;;;;;;;5069295;28;20079;-73
2023/07/15 10:23:33;;;;;;;1.98;1.30;;;;;;;;;;5068634;28;20102;-71
2023/07/15 10:26:04;;;;;;;1.65;1.17;;;;;;;;;;5069235;28;20056;-73
2023/07/15 10:28:36;;;;;;;3.13;1.40;;;;;;;;;;5068412;28;20555;-76
2023/07/15 10:31:16;;;;;;;4.18;1.10;;;;;;;;;;5069120;28;20193;-70
2023/07/15 10:33:55;;;;;;;1.80;1.38;;;;;;;;;;5068270;28;20052;-72
2023/07/15 10:36:45;;;;;;;1.55;1.20;;;;;;;;;;5068907;28;20405;-71
2023/07/15 10:39:19;;;;;;;2.38;1.50;;;;;;;;;;5068469;28;20917;-74
2023/07/15 10:41:48;;;;;;;2.40;1.40;;;;;;;;;;5084126;28;20048;-70
2023/07/15 10:44:19;;;;;;;2.60;1.30;;;;;;;;;;5068753;28;20071;-72
2023/07/15 10:46:51;;;;;;;2.05;1.23;;;;;;;;;;5068628;28;20050;-70
2023/07/15 10:49:18;;;;;;;2.33;1.33;;;;;;;;;;5068023;28;20411;-70
2023/07/15 10:51:46;;;;;;;2.83;1.40;;;;;;;;;;5068572;28;20074;-71
2023/07/15 10:54:27;;;;;;;2.10;1.38;;;;;;;;;;5067854;28;20450;-70
2023/07/15 10:56:54;;;;;;;2.35;1.27;;;;;;;;;;5068430;28;20517;-70
2023/07/15 10:59:24;;;;;;;1.85;1.35;;;;;;;;;;5068770;28;20044;-70
2023/07/15 11:01:51;;;;;;;2.20;1.27;;;;;;;;;;5068681;28;20523;-70
2023/07/15 11:04:19;;;;;;;2.65;1.55;;;;;;;;;;5068369;28;20131;-70
2023/07/15 11:06:46;;;;;;;2.20;1.40;;;;;;;;;;5068558;28;20079;-70
2023/07/15 11:09:18;;;;;;;2.47;1.52;;;;;;;;;;5068466;28;20421;-71
2023/07/15 11:11:45;;;;;;;3.25;1.42;;;;;;;;;;5068701;28;20065;-70
2023/07/15 11:14:25;;;;;;;2.15;1.40;;;;;;;;;;5068248;28;20049;-71
2023/07/15 11:17:01;;;;;;;2.45;1.33;;;;;;;;;;5069309;28;20262;-70
2023/07/15 11:19:29;;;;;;;2.53;1.48;;;;;;;;;;5068327;28;20103;-72
2023/07/15 11:21:58;;;;;;;2.58;1.50;;;;;;;;;;5068010;28;20392;-70
2023/07/15 11:24:27;;;;;;;3.47;1.42;;;;;;;;;;5069649;28;20123;-71
2023/07/15 11:26:54;;;;;;;3.83;1.70;;;;;;;;;;5072408;28;20052;-70
2023/07/15 11:29:22;;;;;;;2.80;1.58;;;;;;;;;;5071903;28;20119;-69
2023/07/15 11:31:57;;;;;;;2.78;1.48;;;;;;;;;;5072454;28;20053;-70
2023/07/15 11:34:26;;;;;;;3.42;1.45;;;;;;;;;;5075428;28;20098;-69
2023/07/15 11:36:54;;;;;;;4.82;2.03;;;;;;;;;;5087381;28;20049;-69
2023/07/15 11:39:21;;;;;;;3.67;1.90;;;;;;;;;;5071786;28;20049;-70
2023/07/15 11:41:51;;;;;;;4.10;1.60;;;;;;;;;;5071719;28;20049;-70
2023/07/15 11:44:22;;;;;;;2.10;1.60;;;;;;;;;;5071565;28;20447;-70
2023/07/15 11:46:49;;;;;;;4.07;1.90;;;;;;;;;;5072165;28;20044;-70
2023/07/15 11:49:20;;;;;;;5.85;2.03;;;;;;;;;;5071347;28;20044;-70
2023/07/15 11:51:48;;;;;;;3.58;1.90;;;;;;;;;;5071809;28;20451;-70
2023/07/15 11:54:16;;;;;;;2.67;1.50;;;;;;;;;;5086937;28;20045;-70
2023/07/15 11:56:45;;;;;;;3.15;1.77;;;;;;;;;;5072135;28;20052;-70
2023/07/15 11:59:26;;;;;;;3.00;1.73;;;;;;;;;;5071512;28;20118;-70
2023/07/15 12:01:57;;;;;;;6.00;2.00;;;;;;;;;;5071699;28;20071;-70
2023/07/15 12:04:27;;;;;;;2.97;1.70;;;;;;;;;;5071125;28;20044;-71
2023/07/15 12:06:54;;;;;;;2.40;1.73;;;;;;;;;;5071105;28;20431;-71
2023/07/15 12:09:21;;;;;;;4.68;1.85;;;;;;;;;;5071076;28;20051;-70
2023/07/15 12:11:49;;;;;;;3.75;2.00;;;;;;;;;;5071559;28;20040;-72
2023/07/15 12:14:17;;;;;;;2.70;1.77;;;;;;;;;;5071252;28;20136;-72
2023/07/15 12:16:45;;;;;;;3.75;1.88;;;;;;;;;;5070856;28;20048;-87
2023/07/15 12:19:13;;;;;;;3.25;1.83;;;;;;;;;;5072826;28;20044;-86
2023/07/15 12:21:40;;;;;;;3.40;2.08;;;;;;;;;;5073615;28;20048;-79
2023/07/15 12:24:08;;;;;;;3.20;2.00;;;;;;;;;;5081166;28;20076;-71
2023/07/15 12:26:37;;;;;;;5.32;2.05;;;;;;;;;;5080249;28;20045;-73
2023/07/15 12:29:03;;;;;;;4.28;1.95;;;;;;;;;;5078607;28;20115;-73
2023/07/15 12:31:30;;;;;;;3.00;2.05;;;;;;;;;;5075074;28;20329;-72
2023/07/15 12:33:57;;;;;;;3.30;2.20;;;;;;;;;;5074558;28;20687;-72
2023/07/15 12:36:24;;;;;;;3.50;2.05;;;;;;;;;;5078414;28;20388;-79
2023/07/15 12:38:50;;;;;;;4.10;1.73;;;;;;;;;;5075387;28;20040;-79
2023/07/15 12:41:17;;;;;;;3.47;1.92;;;;;;;;;;5075185;28;20059;-80
2023/07/15 12:43:44;;;;;;;3.28;1.90;;;;;;;;;;5075972;28;20139;-80
2023/07/15 12:46:11;;;;;;;3.35;1.88;;;;;;;;;;5075032;28;20094;-71
2023/07/15 12:48:38;;;;;;;3.40;1.77;;;;;;;;;;5077675;28;20044;-71
2023/07/15 12:51:05;;;;;;;3.08;1.98;;;;;;;;;;5075151;28;20060;-78
2023/07/15 12:53:32;;;;;;;2.38;1.77;;;;;;;;;;5078321;28;20421;-72
2023/07/15 12:55:59;;;;;;;3.22;1.90;;;;;;;;;;5078432;28;20344;-70
2023/07/15 12:58:26;;;;;;;3.65;1.50;;;;;;;;;;5078102;28;20116;-74
2023/07/15 13:00:56;;;;;;;3.53;1.60;;;;;;;;;;5078252;28;20044;-70
2023/07/15 13:03:23;;;;;;;3.47;1.80;;;;;;;;;;5077796;28;20064;-77
2023/07/15 13:05:50;;;;;;;2.33;1.63;;;;;;;;;;5077769;28;20044;-74
2023/07/15 13:08:16;;;;;;;2.88;1.63;;;;;;;;;;5077309;28;20424;-76
2023/07/15 13:10:44;;;;;;;2.45;1.50;;;;;;;;;;5077505;28;20579;-71
2023/07/15 13:13:11;;;;;;;6.50;1.90;;;;;;;;;;5077910;28;20123;-70
2023/07/15 13:15:38;;;;;;;3.35;1.67;;;;;;;;;;5077125;28;20059;-70
2023/07/15 13:18:07;;;;;;;2.30;1.50;;;;;;;;;;5077065;28;20365;-70
2023/07/15 13:20:34;;;;;;;2.80;1.67;;;;;;;;;;5077051;28;20098;-70
2023/07/15 13:23:01;;;;;;;2.50;1.50;;;;;;;;;;5076865;28;20135;-69
2023/07/15 13:25:28;;;;;;;2.92;1.70;;;;;;;;;;5076594;28;20053;-69
2023/07/15 13:27:54;;;;;;;3.00;1.50;;;;;;;;;;5076484;28;20052;-69
2023/07/15 13:30:21;;;;;;;2.80;1.45;;;;;;;;;;5078460;28;20108;-69
2023/07/15 13:32:49;;;;;;;4.22;1.73;;;;;;;;;;5079584;28;20074;-68
2023/07/15 13:35:16;;;;;;;2.40;1.58;;;;;;;;;;5080835;28;20115;-71
2023/07/15 13:37:42;;;;;;;4.03;1.70;;;;;;;;;;5079913;28;20045;-68
2023/07/15 13:40:10;;;;;;;3.65;1.45;;;;;;;;;;5079917;28;20056;-69
2023/07/15 13:42:36;;;;;;;2.60;1.23;;;;;;;;;;5079825;28;20044;-69
2023/07/15 13:45:03;;;;;;;2.55;1.40;;;;;;;;;;5079566;28;20045;-69
2023/07/15 13:47:30;;;;;;;4.38;1.60;;;;;;;;;;5077732;28;20262;-69
2023/07/15 13:49:57;;;;;;;2.08;1.35;;;;;;;;;;5078784;28;20044;-68
2023/07/15 13:52:24;;;;;;;10.57;1.67;;;;;;;;;;5078514;28;20045;-69
2023/07/15 13:54:51;;;;;;;2.65;1.50;;;;;;;;;;5078131;28;20123;-69
2023/07/15 13:57:18;;;;;;;3.97;1.40;;;;;;;;;;5077169;28;20232;-70
2023/07/15 13:59:45;;;;;;;2.90;1.40;;;;;;;;;;5077509;28;20120;-73
2023/07/15 14:02:15;;;;;;;5.80;1.60;;;;;;;;;;5076800;28;20396;-70
2023/07/15 14:04:42;;;;;;;3.25;1.58;;;;;;;;;;5078027;28;20055;-80
2023/07/15 14:07:09;;;;;;;2.75;1.08;;;;;;;;;;5077447;28;20082;-69
2023/07/15 14:09:37;;;;;;;9.60;1.65;;;;;;;;;;5076944;28;20116;-69
2023/07/15 14:12:04;;;;;;;2.97;1.40;;;;;;;;;;5077425;28;20260;-68
2023/07/15 14:14:30;;;;;;;2.20;1.33;;;;;;;;;;5077222;28;20375;-73
2023/07/15 14:16:57;;;;;;;2.10;1.05;;;;;;;;;;5075775;28;20119;-70
2023/07/15 14:19:25;;;;;;;3.38;1.48;;;;;;;;;;5077453;28;20055;-69
2023/07/15 14:21:52;;;;;;;3.17;1.40;;;;;;;;;;5073953;28;20048;-70
2023/07/15 14:24:39;;;;;;;2.05;1.17;;;;;;;;;;5067599;28;20086;-69
2023/07/15 14:27:06;;;;;;;1.73;1.30;;;;;;;;;;5063546;28;20531;-72
2023/07/15 14:29:33;;;;;;;3.58;1.30;;;;;;;;;;5063523;28;20049;-70
2023/07/15 14:32:00;;;;;;;2.25;1.30;;;;;;;;;;5064151;28;20045;-69
2023/07/15 14:34:30;;;;;;;3.17;1.33;;;;;;;;;;5066340;28;20044;-79
2023/07/15 14:36:57;;;;;;;2.60;1.20;;;;;;;;;;5067663;28;20394;-70
2023/07/15 14:39:23;;;;;;;3.60;1.23;;;;;;;;;;5069378;28;20041;-74
2023/07/15 14:41:50;;;;;;;4.68;1.20;;;;;;;;;;5065148;28;20044;-70
2023/07/15 14:44:20;;;;;;;3.00;1.10;;;;;;;;;;5068687;28;20045;-81
2023/07/15 14:46:47;;;;;;;2.67;1.30;;;;;;;;;;5071508;28;20044;-92
2023/07/15 14:49:13;;;;;;;2.33;1.08;;;;;;;;;;5069378;28;20044;-72